Time;durP1;ratioP1;P1;durP2;ratioP2;P2;SDS_P1;SDS_P2;PMS_P1;PMS_P2;Temp;Humidity;BMP_temperature;BMP_pressure;BME280_temperature;BME280_humidity;BME280_pressure;Samples;Min_cycle;Max_cycle;Signal;HPM_P1;HPM_P2
2021/07/16 00:02:01;;;;;;;32.00;13.00;;;19.10;57.20;;;;;;5032115;28;20426;-77
2021/07/16 00:04:26;;;;;;;33.08;13.02;;;19.10;57.60;;;;;;5032019;28;20391;-77
2021/07/16 00:06:52;;;;;;;28.00;12.87;;;19.10;57.00;;;;;;5013234;28;20426;-74
2021/07/16 00:09:18;;;;;;;28.43;13.37;;;19.10;56.40;;;;;;5031245;28;20395;-76
2021/07/16 00:11:44;;;;;;;31.60;12.70;;;19.00;56.40;;;;;;5030405;28;20379;-76
2021/07/16 00:14:10;;;;;;;29.73;13.60;;;19.00;56.30;;;;;;5030138;28;20384;-75
2021/07/16 00:16:38;;;;;;;29.73;13.77;;;19.00;56.30;;;;;;5030096;28;20394;-76
2021/07/16 00:19:03;;;;;;;32.17;13.50;;;19.00;57.20;;;;;;5030249;28;20759;-75
2021/07/16 00:21:29;;;;;;;27.07;12.83;;;19.00;56.30;;;;;;5030870;28;20391;-76
2021/07/16 00:23:55;;;;;;;29.07;12.60;;;19.10;55.50;;;;;;5030157;28;20390;-76
2021/07/16 00:26:20;;;;;;;23.50;13.60;;;19.00;56.30;;;;;;5029886;28;20414;-75
2021/07/16 00:28:46;;;;;;;28.63;12.77;;;19.00;56.90;;;;;;5029966;28;20462;-75
2021/07/16 00:31:12;;;;;;;23.50;12.68;;;19.00;57.00;;;;;;5029717;28;20401;-75
2021/07/16 00:33:38;;;;;;;29.50;11.35;;;19.00;56.30;;;;;;5012142;28;20387;-76
2021/07/16 00:36:04;;;;;;;24.13;11.10;;;18.90;56.60;;;;;;5029920;28;20393;-77
2021/07/16 00:38:30;;;;;;;27.83;12.93;;;18.80;57.90;;;;;;5033672;28;20469;-76
2021/07/16 00:40:55;;;;;;;24.33;11.73;;;18.80;58.00;;;;;;5033359;28;20457;-77
2021/07/16 00:43:21;;;;;;;30.52;12.02;;;18.80;57.90;;;;;;5033477;28;20391;-77
2021/07/16 00:45:47;;;;;;;28.17;11.80;;;18.70;58.20;;;;;;5033309;28;20438;-75
2021/07/16 00:48:13;;;;;;;26.17;11.40;;;18.70;58.20;;;;;;5033291;28;20864;-76
2021/07/16 00:50:40;;;;;;;22.88;11.20;;;18.70;57.50;;;;;;5033361;28;20390;-75
2021/07/16 00:53:09;;;;;;;31.60;11.80;;;18.70;57.90;;;;;;5033187;28;20807;-75
2021/07/16 00:55:36;;;;;;;27.25;12.57;;;18.60;58.50;;;;;;5033178;28;20426;-75
2021/07/16 00:58:02;;;;;;;25.77;11.93;;;18.60;58.10;;;;;;5032983;28;20720;-76
2021/07/16 01:00:28;;;;;;;25.75;12.25;;;18.70;57.50;;;;;;5033028;28;20460;-76
2021/07/16 01:02:53;;;;;;;25.83;12.48;;;18.70;57.90;;;;;;5033326;28;20783;-76
2021/07/16 01:05:21;;;;;;;26.20;12.30;;;18.70;58.30;;;;;;5033108;28;20418;-75
2021/07/16 01:07:49;;;;;;;23.27;11.57;;;18.70;58.60;;;;;;5057394;23;20444;-73
2021/07/16 01:10:15;;;;;;;22.88;11.43;;;18.60;58.20;;;;;;5053200;28;20374;-72
2021/07/16 01:12:43;;;;;;;28.10;12.73;;;18.60;58.50;;;;;;5051669;28;20951;-73
2021/07/16 01:15:16;;;;;;;28.70;12.07;;;18.60;59.30;;;;;;5053191;28;20397;-73
2021/07/16 01:17:42;;;;;;;28.90;14.13;;;18.50;59.40;;;;;;5053244;28;20404;-73
2021/07/16 01:20:11;;;;;;;32.15;13.90;;;18.50;60.40;;;;;;5053116;28;20751;-72
2021/07/16 01:22:39;;;;;;;34.00;14.20;;;18.50;60.00;;;;;;5052584;28;20382;-72
2021/07/16 01:25:08;;;;;;;30.02;13.50;;;18.60;59.50;;;;;;5052763;28;20405;-72
2021/07/16 01:27:34;;;;;;;28.00;13.90;;;18.50;59.70;;;;;;5052842;28;20794;-72
2021/07/16 01:30:03;;;;;;;39.60;16.10;;;18.40;60.00;;;;;;5052852;28;20424;-72
2021/07/16 01:32:29;;;;;;;30.87;15.37;;;18.40;60.50;;;;;;5034445;28;20673;-70
2021/07/16 01:34:54;;;;;;;30.30;14.47;;;18.40;60.50;;;;;;5053469;28;20460;-72
2021/07/16 01:37:21;;;;;;;36.83;17.00;;;18.40;60.60;;;;;;5052452;28;20392;-73
2021/07/16 01:39:46;;;;;;;35.53;16.80;;;18.40;60.10;;;;;;5052881;28;20381;-71
2021/07/16 01:42:13;;;;;;;29.08;14.57;;;18.30;60.00;;;;;;5052322;28;20793;-70
2021/07/16 01:44:41;;;;;;;30.63;15.30;;;18.30;60.00;;;;;;5052381;28;20689;-72
2021/07/16 01:47:07;;;;;;;31.47;14.70;;;18.30;60.20;;;;;;5052382;28;20489;-72
2021/07/16 01:49:32;;;;;;;28.52;14.48;;;18.20;60.00;;;;;;5051714;28;20435;-71
2021/07/16 01:51:58;;;;;;;28.10;13.73;;;18.30;59.10;;;;;;5052190;28;20378;-71
2021/07/16 01:54:24;;;;;;;31.05;13.88;;;18.30;58.90;;;;;;5052513;28;20381;-73
2021/07/16 01:56:50;;;;;;;23.97;12.73;;;18.30;58.70;;;;;;5052134;28;20400;-71
2021/07/16 01:59:16;;;;;;;23.50;11.70;;;18.20;58.10;;;;;;5052466;28;20389;-72
2021/07/16 02:01:42;;;;;;;22.10;10.95;;;18.30;57.60;;;;;;5052123;28;20400;-73
2021/07/16 02:04:10;;;;;;;30.73;11.77;;;18.30;57.20;;;;;;5034246;28;20877;-72
2021/07/16 02:06:36;;;;;;;27.77;11.45;;;18.20;56.80;;;;;;5051826;28;20446;-71
2021/07/16 02:09:05;;;;;;;24.95;11.35;;;18.20;57.10;;;;;;5052058;28;20393;-72
2021/07/16 02:11:31;;;;;;;29.23;11.23;;;18.20;56.50;;;;;;5051917;28;20878;-72
2021/07/16 02:13:57;;;;;;;25.13;12.13;;;18.20;56.60;;;;;;5052016;28;20378;-72
2021/07/16 02:16:23;;;;;;;29.00;11.97;;;18.20;56.30;;;;;;5033945;28;20504;-73
2021/07/16 02:18:49;;;;;;;26.90;11.30;;;18.30;56.10;;;;;;5051829;28;20435;-72
2021/07/16 02:21:15;;;;;;;23.55;11.00;;;18.20;55.70;;;;;;5033562;28;20425;-71
2021/07/16 02:23:41;;;;;;;29.00;12.15;;;18.30;55.30;;;;;;5051814;28;20474;-71
2021/07/16 02:26:07;;;;;;;26.33;13.05;;;18.30;54.90;;;;;;5051600;28;20401;-71
2021/07/16 02:28:33;;;;;;;31.33;13.93;;;18.30;55.20;;;;;;5051479;28;20385;-71
2021/07/16 02:31:06;;;;;;;32.60;12.82;;;18.30;55.10;;;;;;5051170;28;20439;-72
2021/07/16 02:33:32;;;;;;;25.60;12.77;;;18.30;55.20;;;;;;5051502;28;20401;-71
2021/07/16 02:35:58;;;;;;;27.75;12.25;;;18.30;55.40;;;;;;5051491;28;20460;-71
2021/07/16 02:38:24;;;;;;;27.33;12.35;;;18.30;55.30;;;;;;5051292;28;20472;-71
2021/07/16 02:40:50;;;;;;;26.40;12.43;;;18.30;55.50;;;;;;5051151;28;20469;-71
2021/07/16 02:43:16;;;;;;;26.90;13.10;;;18.30;56.10;;;;;;5051300;28;20745;-71
2021/07/16 02:45:43;;;;;;;25.43;14.10;;;18.20;56.40;;;;;;5051289;28;20484;-71
2021/07/16 02:48:09;;;;;;;29.38;14.30;;;18.20;56.10;;;;;;5051105;28;20386;-70
2021/07/16 02:50:39;;;;;;;27.38;13.93;;;18.20;56.20;;;;;;5051021;28;20378;-72
2021/07/16 02:53:06;;;;;;;37.22;14.63;;;18.20;56.10;;;;;;5051062;28;20742;-71
2021/07/16 02:55:32;;;;;;;30.92;13.73;;;18.20;56.40;;;;;;5051123;28;20390;-71
2021/07/16 02:57:57;;;;;;;34.53;14.00;;;18.20;56.10;;;;;;5051020;28;20391;-71
2021/07/16 03:00:26;;;;;;;30.42;15.10;;;18.20;56.10;;;;;;5050814;28;20442;-72
2021/07/16 03:02:52;;;;;;;33.78;15.30;;;18.20;56.10;;;;;;5050936;28;20416;-72
2021/07/16 03:05:22;;;;;;;32.95;15.55;;;18.10;56.70;;;;;;5050777;28;20444;-72
2021/07/16 03:07:48;;;;;;;34.35;14.93;;;18.10;56.20;;;;;;5051537;28;20393;-72
2021/07/16 03:10:17;;;;;;;29.40;14.70;;;18.10;56.50;;;;;;5051343;28;20485;-72
2021/07/16 03:12:43;;;;;;;32.38;15.27;;;18.00;56.50;;;;;;5050791;28;20384;-71
2021/07/16 03:15:12;;;;;;;26.77;13.68;;;18.00;56.70;;;;;;5050776;28;20400;-71
2021/07/16 03:17:39;;;;;;;32.42;13.30;;;18.00;56.40;;;;;;5029732;28;20433;-72
2021/07/16 03:20:35;;;;;;;27.48;13.57;;;18.00;56.90;;;;;;5030946;28;20391;-72
2021/07/16 03:23:01;;;;;;;24.23;12.80;;;18.00;56.10;;;;;;5023196;28;20403;-72
2021/07/16 03:25:28;;;;;;;26.63;12.20;;;17.90;57.00;;;;;;5031270;28;20869;-72
2021/07/16 03:27:54;;;;;;;26.27;12.45;;;17.90;56.90;;;;;;5031384;28;20458;-72
2021/07/16 03:30:22;;;;;;;26.00;13.02;;;17.90;57.30;;;;;;5031073;28;20879;-72
2021/07/16 03:32:49;;;;;;;24.10;12.47;;;17.90;57.50;;;;;;5032232;28;20391;-72
2021/07/16 03:35:15;;;;;;;30.20;12.55;;;17.90;57.40;;;;;;5033342;28;20737;-73
2021/07/16 03:37:42;;;;;;;31.33;12.30;;;17.90;57.10;;;;;;5031823;28;20433;-72
2021/07/16 03:40:11;;;;;;;30.00;13.18;;;17.80;57.70;;;;;;5031187;28;20437;-72
2021/07/16 03:42:36;;;;;;;27.38;11.95;;;17.80;58.10;;;;;;5030966;28;20391;-73
2021/07/16 03:45:07;;;;;;;30.03;11.10;;;17.80;57.80;;;;;;5030872;28;20403;-72
2021/07/16 03:47:33;;;;;;;30.13;12.10;;;17.90;57.90;;;;;;5030555;28;20445;-73
2021/07/16 03:49:58;;;;;;;26.33;12.18;;;17.90;57.50;;;;;;5030643;28;20387;-72
2021/07/16 03:52:24;;;;;;;23.35;11.38;;;18.00;56.80;;;;;;5030493;28;20913;-72
2021/07/16 03:54:50;;;;;;;30.67;11.50;;;18.00;56.50;;;;;;5030602;28;20887;-71
2021/07/16 03:57:16;;;;;;;28.00;12.27;;;17.90;56.70;;;;;;5030430;28;20956;-71
2021/07/16 03:59:42;;;;;;;28.33;13.30;;;17.90;56.90;;;;;;5030375;28;20403;-71
2021/07/16 04:02:08;;;;;;;29.07;11.77;;;17.80;57.20;;;;;;5030095;28;20868;-72
2021/07/16 04:04:34;;;;;;;34.30;12.47;;;17.80;56.80;;;;;;5030243;28;20387;-71
2021/07/16 04:07:00;;;;;;;27.70;11.23;;;17.90;57.50;;;;;;5030104;28;20395;-72
2021/07/16 04:09:27;;;;;;;24.35;10.60;;;17.90;56.90;;;;;;5030340;28;20445;-71
2021/07/16 04:12:18;;;;;;;25.17;12.63;;;17.80;57.20;;;;;;5014428;28;20387;-72
2021/07/16 04:14:47;;;;;;;23.08;12.20;;;17.70;57.30;;;;;;5034238;28;20383;-71
2021/07/16 04:17:15;;;;;;;34.00;12.93;;;17.80;58.30;;;;;;5033981;28;20480;-70
2021/07/16 04:19:42;;;;;;;36.72;12.85;;;17.80;59.20;;;;;;5033980;28;20393;-70
2021/07/16 04:22:08;;;;;;;36.75;14.38;;;17.70;60.80;;;;;;5033828;28;20391;-71
2021/07/16 04:24:38;;;;;;;32.15;13.48;;;17.60;62.70;;;;;;5034024;28;20375;-72
2021/07/16 04:27:06;;;;;;;31.00;13.57;;;17.60;62.40;;;;;;5033567;28;20469;-72
2021/07/16 04:29:32;;;;;;;31.67;13.82;;;17.50;61.90;;;;;;5033911;28;20392;-71
2021/07/16 04:31:59;;;;;;;34.10;13.90;;;17.50;62.80;;;;;;5033635;28;20476;-71
2021/07/16 04:34:29;;;;;;;35.63;14.98;;;17.50;61.80;;;;;;5033865;28;20458;-72
2021/07/16 04:36:55;;;;;;;35.42;14.10;;;17.50;63.60;;;;;;5015938;28;20910;-71
2021/07/16 04:39:20;;;;;;;32.58;14.15;;;17.50;62.00;;;;;;5033777;28;20382;-71
2021/07/16 04:41:46;;;;;;;38.40;13.10;;;17.50;62.00;;;;;;5033559;28;20398;-71
2021/07/16 04:44:11;;;;;;;29.90;14.30;;;17.60;61.40;;;;;;5033560;28;20414;-72
2021/07/16 04:46:37;;;;;;;27.70;12.70;;;17.50;61.60;;;;;;5033095;28;20504;-71
2021/07/16 04:49:03;;;;;;;28.52;14.40;;;17.50;60.00;;;;;;5033739;28;20871;-72
2021/07/16 04:51:32;;;;;;;28.10;12.70;;;17.50;61.20;;;;;;5033585;28;20466;-71
2021/07/16 04:53:58;;;;;;;31.20;12.05;;;17.50;60.70;;;;;;5033732;28;20470;-71
2021/07/16 04:56:25;;;;;;;25.48;11.50;;;17.60;59.70;;;;;;5033656;28;20379;-73
2021/07/16 04:58:51;;;;;;;34.53;13.50;;;17.50;59.30;;;;;;5033519;28;20391;-73
2021/07/16 05:01:17;;;;;;;25.38;12.30;;;17.50;60.20;;;;;;5033500;28;20395;-73
2021/07/16 05:03:43;;;;;;;28.73;13.70;;;17.50;59.20;;;;;;5033343;28;20429;-72
2021/07/16 05:06:12;;;;;;;23.65;12.32;;;17.50;57.90;;;;;;5032983;28;20767;-71
2021/07/16 05:08:41;;;;;;;27.85;12.57;;;17.60;58.20;;;;;;5033161;28;20429;-72
2021/07/16 05:11:08;;;;;;;27.85;10.90;;;17.40;58.00;;;;;;5032815;28;20498;-72
2021/07/16 05:13:36;;;;;;;26.08;11.32;;;17.40;57.30;;;;;;5033352;28;20387;-71
2021/07/16 05:16:05;;;;;;;25.92;11.98;;;17.40;58.10;;;;;;5033183;28;20383;-72
2021/07/16 05:18:31;;;;;;;24.38;11.90;;;17.30;57.40;;;;;;5033106;28;20398;-72
2021/07/16 05:20:58;;;;;;;28.77;11.77;;;17.40;58.40;;;;;;5033088;28;20379;-73
2021/07/16 05:23:24;;;;;;;29.10;11.48;;;17.40;57.20;;;;;;5033451;28;20390;-72
2021/07/16 05:25:50;;;;;;;22.50;10.30;;;17.40;56.00;;;;;;5032628;28;20502;-72
2021/07/16 05:28:16;;;;;;;29.00;12.37;;;17.40;55.00;;;;;;5032659;28;20386;-72
2021/07/16 05:30:42;;;;;;;29.93;11.67;;;17.40;55.50;;;;;;5032479;28;20387;-71
2021/07/16 05:33:07;;;;;;;30.48;11.63;;;17.40;54.80;;;;;;5032683;28;20458;-72
2021/07/16 05:35:33;;;;;;;26.33;11.30;;;17.50;53.70;;;;;;5032648;28;20399;-73
2021/07/16 05:37:59;;;;;;;21.93;11.37;;;17.60;54.20;;;;;;5032330;28;20390;-71
2021/07/16 05:40:25;;;;;;;26.03;9.97;;;17.60;52.80;;;;;;5032407;28;20391;-72
2021/07/16 05:42:51;;;;;;;20.45;10.57;;;17.60;52.10;;;;;;5032458;28;20387;-73
2021/07/16 05:45:17;;;;;;;25.27;11.57;;;17.40;52.60;;;;;;5032285;28;20397;-72
2021/07/16 05:47:42;;;;;;;29.25;11.98;;;17.50;52.90;;;;;;5032037;28;20467;-72
2021/07/16 05:50:08;;;;;;;26.63;12.18;;;17.50;52.60;;;;;;5032269;28;20466;-72
2021/07/16 05:52:34;;;;;;;25.83;12.02;;;17.50;52.20;;;;;;5032102;28;20474;-72
2021/07/16 05:55:00;;;;;;;29.27;11.93;;;17.50;52.40;;;;;;5032067;28;20445;-72
2021/07/16 05:57:26;;;;;;;36.25;13.18;;;17.50;52.90;;;;;;5014268;28;20391;-72
2021/07/16 05:59:52;;;;;;;34.95;13.07;;;17.70;52.40;;;;;;5031897;28;20391;-72
2021/07/16 06:02:18;;;;;;;27.58;12.23;;;17.80;51.50;;;;;;5031742;28;20397;-72
2021/07/16 06:04:43;;;;;;;29.43;13.13;;;17.80;50.50;;;;;;5032023;28;20391;-72
2021/07/16 06:07:09;;;;;;;31.80;12.50;;;17.80;50.70;;;;;;5031691;28;20772;-71
2021/07/16 06:09:35;;;;;;;31.80;13.43;;;17.90;50.50;;;;;;5031764;28;20391;-72
2021/07/16 06:12:00;;;;;;;33.57;16.27;;;17.90;50.50;;;;;;5013792;28;20390;-72
2021/07/16 06:14:26;;;;;;;42.88;17.40;;;17.80;51.80;;;;;;5031879;28;20387;-72
2021/07/16 06:16:51;;;;;;;38.80;19.23;;;17.60;52.70;;;;;;5031482;28;20387;-72
2021/07/16 06:19:18;;;;;;;42.25;20.88;;;17.60;53.90;;;;;;5031646;28;20489;-71
2021/07/16 06:21:44;;;;;;;37.70;18.43;;;17.60;54.10;;;;;;5031286;28;20492;-72
2021/07/16 06:24:10;;;;;;;37.60;19.23;;;17.50;53.40;;;;;;5031436;28;20398;-72
2021/07/16 06:26:36;;;;;;;36.10;20.77;;;17.50;54.40;;;;;;5031081;28;20403;-72
2021/07/16 06:29:05;;;;;;;39.70;20.33;;;17.60;54.70;;;;;;5031546;28;20947;-72
2021/07/16 06:31:31;;;;;;;34.08;19.60;;;17.50;53.50;;;;;;5031425;28;20415;-72
2021/07/16 06:33:57;;;;;;;47.10;21.58;;;17.50;54.00;;;;;;5031115;28;20462;-73
2021/07/16 06:36:23;;;;;;;40.25;22.98;;;17.50;54.50;;;;;;5031772;28;20482;-72
2021/07/16 06:38:48;;;;;;;45.27;21.77;;;17.60;53.70;;;;;;5031558;28;20735;-73
2021/07/16 06:41:14;;;;;;;50.07;23.03;;;17.70;53.10;;;;;;5031679;28;20387;-72
2021/07/16 06:43:40;;;;;;;42.43;21.90;;;17.70;52.70;;;;;;5032363;28;20827;-72
2021/07/16 06:46:06;;;;;;;39.87;20.70;;;17.60;52.70;;;;;;5031585;28;20414;-71
2021/07/16 06:48:31;;;;;;;51.20;22.30;;;17.50;53.50;;;;;;5031570;28;20811;-72
2021/07/16 06:50:57;;;;;;;48.27;24.07;;;17.60;54.10;;;;;;5030998;28;20898;-71
2021/07/16 06:53:22;;;;;;;51.67;25.67;;;17.60;51.70;;;;;;5031094;28;20674;-71
2021/07/16 06:55:48;;;;;;;49.90;24.63;;;17.60;52.20;;;;;;5032734;28;20403;-72
2021/07/16 06:58:14;;;;;;;53.72;29.05;;;17.50;52.10;;;;;;5033329;28;20791;-73
2021/07/16 07:00:40;;;;;;;52.42;29.50;;;17.60;51.70;;;;;;5032139;28;20394;-73
2021/07/16 07:03:06;;;;;;;48.75;27.23;;;17.70;51.80;;;;;;5033386;28;20880;-73
2021/07/16 07:05:31;;;;;;;49.65;24.88;;;17.70;50.90;;;;;;5033662;28;20402;-72
2021/07/16 07:07:57;;;;;;;49.45;28.25;;;17.50;52.20;;;;;;5058422;23;20469;-78
2021/07/16 07:10:23;;;;;;;60.45;28.77;;;17.50;53.40;;;;;;5059007;28;20385;-77
2021/07/16 07:12:48;;;;;;;44.10;24.65;;;17.60;53.30;;;;;;5063748;28;20796;-76
2021/07/16 07:15:14;;;;;;;44.15;22.98;;;17.70;51.90;;;;;;5065034;28;20403;-76
2021/07/16 07:17:41;;;;;;;52.38;26.40;;;17.50;53.30;;;;;;5061164;28;20461;-77
2021/07/16 07:20:08;;;;;;;53.28;27.35;;;17.60;54.50;;;;;;5042207;28;20389;-77
2021/07/16 07:22:34;;;;;;;45.38;24.10;;;17.70;52.70;;;;;;5059163;28;20385;-75
2021/07/16 07:24:59;;;;;;;47.42;22.98;;;17.80;51.90;;;;;;5058965;28;20885;-77
2021/07/16 07:27:25;;;;;;;47.63;25.80;;;17.90;52.10;;;;;;5041251;28;20397;-76
2021/07/16 07:29:50;;;;;;;41.50;20.60;;;18.00;50.70;;;;;;5063651;28;20400;-76
2021/07/16 07:32:16;;;;;;;38.90;19.20;;;18.10;49.00;;;;;;5061482;28;20393;-76
2021/07/16 07:34:42;;;;;;;34.92;20.50;;;18.10;48.60;;;;;;5062365;28;20783;-76
2021/07/16 07:37:07;;;;;;;40.95;17.65;;;18.30;47.70;;;;;;5063076;28;20451;-76
2021/07/16 07:39:33;;;;;;;35.47;15.68;;;18.30;46.40;;;;;;5062166;28;20381;-77
2021/07/16 07:41:59;;;;;;;33.38;16.90;;;18.40;46.00;;;;;;5062814;28;20389;-77
2021/07/16 07:44:25;;;;;;;38.30;15.05;;;18.40;45.10;;;;;;5044734;28;20401;-78
2021/07/16 07:46:51;;;;;;;34.38;15.30;;;18.50;44.50;;;;;;5061593;28;20479;-76
2021/07/16 07:49:16;;;;;;;35.35;15.05;;;18.60;44.10;;;;;;5059569;28;20432;-77
2021/07/16 07:51:43;;;;;;;31.07;15.50;;;18.60;43.40;;;;;;5056702;28;20369;-77
2021/07/16 07:54:09;;;;;;;27.15;14.07;;;18.70;42.70;;;;;;5054465;28;20445;-76
2021/07/16 07:56:35;;;;;;;32.90;17.13;;;18.80;43.00;;;;;;5054517;28;20814;-79
2021/07/16 07:59:01;;;;;;;33.20;17.98;;;18.60;43.00;;;;;;5053450;28;20580;-76
2021/07/16 08:01:27;;;;;;;35.92;15.70;;;18.60;43.10;;;;;;5034787;28;20409;-77
2021/07/16 08:03:53;;;;;;;38.33;15.93;;;18.50;43.00;;;;;;5055947;28;20386;-77
2021/07/16 08:06:18;;;;;;;33.33;14.70;;;18.60;44.10;;;;;;5054202;28;20409;-77
2021/07/16 08:08:44;;;;;;;36.50;14.77;;;18.70;42.80;;;;;;5056727;28;20385;-77
2021/07/16 08:11:10;;;;;;;33.53;14.35;;;18.80;42.40;;;;;;5061130;28;20804;-77
2021/07/16 08:13:36;;;;;;;27.70;16.83;;;18.70;42.00;;;;;;5063460;28;20495;-77
2021/07/16 08:16:03;;;;;;;40.88;19.40;;;18.80;42.40;;;;;;5058672;28;20381;-76
2021/07/16 08:18:29;;;;;;;32.58;16.70;;;18.80;41.80;;;;;;5061604;28;20385;-77
2021/07/16 08:20:56;;;;;;;36.67;18.35;;;18.60;42.60;;;;;;5037014;28;20711;-77
2021/07/16 08:23:22;;;;;;;39.03;22.42;;;18.50;43.50;;;;;;5060964;28;20423;-77
2021/07/16 08:25:48;;;;;;;46.45;24.02;;;18.60;43.10;;;;;;5045456;28;20785;-76
2021/07/16 08:28:14;;;;;;;43.25;20.52;;;18.70;41.90;;;;;;5059886;28;20400;-77
2021/07/16 08:30:40;;;;;;;39.80;20.20;;;18.80;41.20;;;;;;5059083;28;20837;-77
2021/07/16 08:33:06;;;;;;;35.77;19.13;;;18.90;40.90;;;;;;5060789;28;20428;-75
2021/07/16 08:35:31;;;;;;;33.17;17.98;;;19.00;40.00;;;;;;5045142;28;20878;-76
2021/07/16 08:37:57;;;;;;;37.78;20.27;;;19.00;39.60;;;;;;5042403;28;20452;-77
2021/07/16 08:40:23;;;;;;;38.03;20.20;;;18.90;39.90;;;;;;5040208;28;20474;-77
2021/07/16 08:42:49;;;;;;;33.20;15.40;;;19.00;40.40;;;;;;5061785;28;20389;-77
2021/07/16 08:45:15;;;;;;;36.30;18.63;;;19.20;39.70;;;;;;5062521;28;20416;-78
2021/07/16 08:47:42;;;;;;;49.38;23.30;;;19.10;39.30;;;;;;5058960;28;20858;-77
2021/07/16 08:50:11;;;;;;;57.85;33.15;;;19.10;39.50;;;;;;5057824;28;20385;-77
2021/07/16 08:52:38;;;;;;;45.30;27.92;;;19.20;38.90;;;;;;5061033;28;20387;-76
2021/07/16 08:55:04;;;;;;;48.25;26.42;;;19.30;38.80;;;;;;5063276;28;20381;-76
2021/07/16 08:57:31;;;;;;;43.75;22.08;;;19.40;38.60;;;;;;5064600;28;20887;-76
2021/07/16 08:59:57;;;;;;;39.67;22.67;;;19.50;37.50;;;;;;5048245;28;20389;-78
2021/07/16 09:02:27;;;;;;;36.53;16.85;;;19.80;37.20;;;;;;5063528;28;20396;-77
2021/07/16 09:04:58;;;;;;;29.35;15.15;;;19.80;36.40;;;;;;5062177;28;20385;-76
2021/07/16 09:07:24;;;;;;;27.92;13.38;;;19.70;36.50;;;;;;5061199;28;20710;-77
2021/07/16 09:09:50;;;;;;;25.65;13.10;;;19.90;36.60;;;;;;5058563;28;20389;-77
2021/07/16 09:12:15;;;;;;;24.92;12.25;;;20.10;36.40;;;;;;5057460;28;20400;-76
2021/07/16 09:14:42;;;;;;;27.05;12.75;;;20.40;35.00;;;;;;5057466;28;20396;-77
2021/07/16 09:17:14;;;;;;;24.38;12.02;;;20.50;35.40;;;;;;5040416;28;20508;-78
2021/07/16 09:19:47;;;;;;;23.83;12.88;;;20.70;34.10;;;;;;5060637;28;20393;-77
2021/07/16 09:22:20;;;;;;;30.73;14.07;;;20.70;33.90;;;;;;5058302;28;20386;-76
2021/07/16 09:24:57;;;;;;;27.02;13.65;;;20.70;34.00;;;;;;5043504;28;20394;-77
2021/07/16 09:27:40;;;;;;;26.45;13.43;;;20.90;33.10;;;;;;5060072;28;20389;-77
2021/07/16 09:30:17;;;;;;;29.90;13.90;;;21.00;32.10;;;;;;5059928;28;20745;-77
2021/07/16 09:33:04;;;;;;;32.17;14.53;;;21.10;32.30;;;;;;5059822;28;20468;-79
2021/07/16 09:35:41;;;;;;;28.60;13.77;;;20.90;32.20;;;;;;5040348;28;20397;-77
2021/07/16 09:38:06;;;;;;;32.13;16.30;;;20.70;32.60;;;;;;5041977;28;20408;-77
2021/07/16 09:40:33;;;;;;;29.73;16.38;;;20.60;33.30;;;;;;5058941;28;20378;-78
2021/07/16 09:43:11;;;;;;;30.80;16.48;;;20.30;33.10;;;;;;5058669;28;20388;-77
2021/07/16 09:45:38;;;;;;;28.65;16.30;;;20.10;34.50;;;;;;5056756;28;20917;-77
2021/07/16 09:48:23;;;;;;;29.63;16.92;;;20.20;34.30;;;;;;5060325;28;20373;-76
2021/07/16 09:51:09;;;;;;;26.15;16.05;;;20.40;34.20;;;;;;5044789;28;20932;-76
2021/07/16 09:53:51;;;;;;;37.78;16.08;;;20.50;33.60;;;;;;5063612;28;20401;-77
2021/07/16 09:56:18;;;;;;;26.05;13.95;;;20.50;34.00;;;;;;5063850;28;20484;-77
2021/07/16 09:58:44;;;;;;;28.25;15.45;;;20.40;33.70;;;;;;5061270;28;20376;-76
2021/07/16 10:01:10;;;;;;;28.52;15.07;;;20.40;33.80;;;;;;5041736;28;20394;-78
2021/07/16 10:03:38;;;;;;;21.38;14.35;;;20.20;34.10;;;;;;5060161;28;20381;-77
2021/07/16 10:06:05;;;;;;;27.23;12.13;;;20.30;34.60;;;;;;5060099;28;20401;-77
2021/07/16 10:08:33;;;;;;;23.25;11.07;;;20.10;34.20;;;;;;5066137;28;20404;-77
2021/07/16 10:11:02;;;;;;;24.60;10.70;;;20.10;34.80;;;;;;5060229;28;20396;-77
2021/07/16 10:13:30;;;;;;;31.27;11.90;;;20.10;34.90;;;;;;5065984;28;20392;-77
2021/07/16 10:15:56;;;;;;;25.63;11.40;;;20.10;35.20;;;;;;5061175;28;20386;-77
2021/07/16 10:18:23;;;;;;;30.90;11.83;;;20.30;34.40;;;;;;5061078;28;20506;-75
2021/07/16 10:20:49;;;;;;;24.43;10.17;;;20.70;33.40;;;;;;5062940;28;20382;-77
2021/07/16 10:23:15;;;;;;;21.95;9.95;;;20.70;32.20;;;;;;5039668;28;20477;-77
2021/07/16 10:25:41;;;;;;;24.58;9.98;;;20.90;32.40;;;;;;5057360;28;20425;-77
2021/07/16 10:28:07;;;;;;;25.27;9.90;;;21.20;31.60;;;;;;5040147;28;20924;-77
2021/07/16 10:30:35;;;;;;;22.40;9.43;;;21.50;30.50;;;;;;5039431;28;20463;-78
2021/07/16 10:33:01;;;;;;;21.65;9.70;;;21.60;30.30;;;;;;5041217;28;20794;-77
2021/07/16 10:35:36;;;;;;;25.63;11.00;;;21.20;30.40;;;;;;5041755;28;20397;-77
2021/07/16 10:38:23;;;;;;;34.83;13.13;;;21.20;30.60;;;;;;5044158;28;20385;-77
2021/07/16 10:40:48;;;;;;;33.07;16.17;;;21.50;30.00;;;;;;5060181;28;20389;-76
2021/07/16 10:43:23;;;;;;;33.80;15.27;;;21.90;27.70;;;;;;5042133;28;20779;-77
2021/07/16 10:45:49;;;;;;;29.67;14.23;;;21.80;28.30;;;;;;5060630;28;20432;-77
2021/07/16 10:48:20;;;;;;;28.50;12.80;;;22.30;27.90;;;;;;5059219;28;20377;-77
2021/07/16 10:50:49;;;;;;;21.90;10.75;;;22.50;27.60;;;;;;5055432;28;20385;-76
2021/07/16 10:53:28;;;;;;;26.10;12.68;;;21.90;27.10;;;;;;5039858;28;20386;-77
2021/07/16 10:55:57;;;;;;;34.65;15.57;;;21.70;28.50;;;;;;5056544;28;20394;-78
2021/07/16 10:58:36;;;;;;;28.98;12.63;;;21.70;29.00;;;;;;5058912;28;20389;-78
2021/07/16 11:01:03;;;;;;;34.15;13.43;;;21.40;29.40;;;;;;5057100;28;20378;-78
2021/07/16 11:03:39;;;;;;;26.77;12.40;;;21.70;29.10;;;;;;5056837;28;20436;-77
2021/07/16 11:06:06;;;;;;;23.08;11.00;;;21.90;29.00;;;;;;5053431;28;20405;-77
2021/07/16 11:08:35;;;;;;;18.20;9.30;;;21.50;29.10;;;;;;5055863;28;20398;-77
2021/07/16 11:11:12;;;;;;;23.13;9.60;;;21.40;29.20;;;;;;5056492;28;20385;-76
2021/07/16 11:13:46;;;;;;;30.70;13.60;;;21.60;29.40;;;;;;5056713;28;20377;-77
2021/07/16 11:16:15;;;;;;;33.50;12.47;;;21.60;29.20;;;;;;5055684;28;20407;-77
2021/07/16 11:18:52;;;;;;;21.10;9.07;;;21.90;28.50;;;;;;5055055;28;20392;-77
2021/07/16 11:21:39;;;;;;;18.73;8.80;;;22.20;26.50;;;;;;5055582;28;20876;-76
2021/07/16 11:24:27;;;;;;;24.45;9.07;;;21.60;28.60;;;;;;5057822;28;20787;-77
2021/07/16 11:27:17;;;;;;;22.00;9.25;;;21.50;30.10;;;;;;5063512;28;20473;-77
2021/07/16 11:29:50;;;;;;;29.15;9.90;;;21.10;30.60;;;;;;5059499;28;20373;-78
2021/07/16 11:32:21;;;;;;;33.67;10.00;;;20.90;32.50;;;;;;5054563;28;20378;-76
2021/07/16 11:34:47;;;;;;;21.52;8.95;;;20.70;32.80;;;;;;5037698;28;20386;-79
2021/07/16 11:37:23;;;;;;;29.40;9.50;;;20.80;32.60;;;;;;5058969;28;20377;-78
2021/07/16 11:39:53;;;;;;;31.45;10.10;;;20.60;33.50;;;;;;5039726;28;20385;-77
2021/07/16 11:42:19;;;;;;;26.63;9.38;;;20.70;33.70;;;;;;5035095;28;20372;-78
2021/07/16 11:44:44;;;;;;;25.67;9.10;;;20.80;32.70;;;;;;5053280;28;20460;-78
2021/07/16 11:47:19;;;;;;;24.60;8.52;;;20.80;32.80;;;;;;5054984;28;20472;-78
2021/07/16 11:49:46;;;;;;;29.75;10.32;;;21.10;32.60;;;;;;5055397;28;20381;-78
2021/07/16 11:52:18;;;;;;;33.33;9.73;;;21.40;30.50;;;;;;5053368;28;20413;-78
2021/07/16 11:54:44;;;;;;;30.88;11.95;;;21.90;29.00;;;;;;5055357;28;20378;-77
2021/07/16 11:57:10;;;;;;;30.50;11.25;;;21.80;27.90;;;;;;5050942;28;20381;-78
2021/07/16 11:59:35;;;;;;;23.63;10.18;;;21.90;28.90;;;;;;5050868;28;20488;-77
2021/07/16 12:02:05;;;;;;;29.15;9.80;;;21.90;28.30;;;;;;5050091;28;20414;-78
2021/07/16 12:04:31;;;;;;;29.30;10.40;;;21.60;27.90;;;;;;5050330;28;20467;-77
2021/07/16 12:06:56;;;;;;;24.20;8.70;;;21.30;29.60;;;;;;5050144;28;20429;-77
2021/07/16 12:09:32;;;;;;;29.13;10.00;;;21.10;30.60;;;;;;5050205;28;21095;-77
2021/07/16 12:12:05;;;;;;;36.05;10.98;;;20.90;31.40;;;;;;5051215;28;20882;-78
2021/07/16 12:14:50;;;;;;;28.17;9.52;;;21.00;31.70;;;;;;5049138;28;20503;-77
2021/07/16 12:17:22;;;;;;;34.00;10.63;;;21.00;31.90;;;;;;5050299;28;20381;-77
2021/07/16 12:19:49;;;;;;;23.90;7.87;;;21.20;31.40;;;;;;5050860;28;20373;-77
2021/07/16 12:22:15;;;;;;;26.08;8.10;;;21.10;31.00;;;;;;5049915;28;20463;-77
2021/07/16 12:24:43;;;;;;;30.33;8.75;;;21.30;29.80;;;;;;5050302;28;20385;-76
2021/07/16 12:27:12;;;;;;;33.40;9.30;;;21.40;29.70;;;;;;5050215;28;20455;-77
2021/07/16 12:29:38;;;;;;;34.92;9.60;;;21.40;29.70;;;;;;5050254;28;20465;-78
2021/07/16 12:32:05;;;;;;;29.13;8.35;;;21.30;30.80;;;;;;5050661;28;20396;-78